createdAt,value
2018-01-16T00:00:20.630Z,5.54
2018-01-16T00:01:23.855Z,5.54
2018-01-16T00:02:26.804Z,5.63
2018-01-16T00:03:29.706Z,5.64
2018-01-16T00:04:32.663Z,5.60
2018-01-16T00:05:35.577Z,5.65
2018-01-16T00:06:38.543Z,5.74
2018-01-16T00:07:41.806Z,5.73
2018-01-16T00:08:44.795Z,5.67
2018-01-16T00:09:47.750Z,5.68
2018-01-16T00:10:50.688Z,5.70
2018-01-16T00:11:53.629Z,5.72
2018-01-16T00:12:56.651Z,5.67
2018-01-16T00:14:00.043Z,5.67
2018-01-16T00:15:02.951Z,5.66
2018-01-16T00:16:05.942Z,5.63
2018-01-16T00:17:08.888Z,5.56
2018-01-16T00:18:11.799Z,5.53
2018-01-16T00:19:14.776Z,5.50
2018-01-16T00:20:17.750Z,5.52
2018-01-16T00:21:20.923Z,5.52
2018-01-16T00:22:23.914Z,5.50
2018-01-16T00:23:26.884Z,5.48
2018-01-16T00:24:29.861Z,5.47
2018-01-16T00:25:33.116Z,5.43
2018-01-16T00:26:36.000Z,5.46
2018-01-16T00:27:38.893Z,5.46
2018-01-16T00:28:41.802Z,5.44
2018-01-16T00:29:44.694Z,5.41
2018-01-16T00:30:47.583Z,5.39
2018-01-16T00:31:50.967Z,5.37
2018-01-16T00:32:53.923Z,5.37
2018-01-16T00:33:56.858Z,5.40
2018-01-16T00:34:59.867Z,5.42
2018-01-16T00:36:02.814Z,5.41
2018-01-16T00:37:05.745Z,5.42
2018-01-16T00:38:09.012Z,5.42
2018-01-16T00:39:11.891Z,5.42
2018-01-16T00:40:14.846Z,5.38
2018-01-16T00:41:17.777Z,5.41
2018-01-16T00:42:20.885Z,5.41
2018-01-16T00:43:23.778Z,5.40
2018-01-16T00:44:27.113Z,5.37
2018-01-16T00:45:30.016Z,5.39
2018-01-16T00:46:33.025Z,5.34
2018-01-16T00:47:35.953Z,5.31
2018-01-16T00:48:38.931Z,5.26
2018-01-16T00:49:41.853Z,5.24
2018-01-16T00:50:45.171Z,5.22
2018-01-16T00:51:48.085Z,5.23
2018-01-16T00:52:51.106Z,5.16
2018-01-16T00:53:54.015Z,5.09
2018-01-16T00:54:56.977Z,5.01
2018-01-16T00:55:59.878Z,4.98
2018-01-16T00:57:03.238Z,4.99
2018-01-16T00:58:06.191Z,4.98
2018-01-16T00:59:09.137Z,4.96
2018-01-16T01:00:12.081Z,4.94
2018-01-16T01:01:15.027Z,4.94
2018-01-16T01:02:17.943Z,4.91
2018-01-16T01:03:21.255Z,4.86
2018-01-16T01:04:24.185Z,4.85
2018-01-16T01:05:27.155Z,4.77
2018-01-16T01:06:30.088Z,4.79
2018-01-16T01:07:33.016Z,4.75
2018-01-16T01:08:35.958Z,4.72
2018-01-16T01:09:39.274Z,4.68
2018-01-16T01:10:42.229Z,4.69
2018-01-16T01:11:45.179Z,4.65
2018-01-16T01:12:48.106Z,4.62
2018-01-16T01:13:51.061Z,4.64
2018-01-16T01:14:53.989Z,4.65
2018-01-16T01:15:57.277Z,4.65
2018-01-16T01:17:00.169Z,4.63
2018-01-16T01:18:03.875Z,4.60
2018-01-16T01:19:06.726Z,4.58
2018-01-16T01:20:09.539Z,4.53
2018-01-16T01:21:12.384Z,4.51
2018-01-16T01:22:15.624Z,4.49
2018-01-16T01:23:18.548Z,4.47
2018-01-16T01:24:21.472Z,4.43
2018-01-16T01:25:24.409Z,4.42
2018-01-16T01:26:27.390Z,4.44
2018-01-16T01:27:30.280Z,4.45
2018-01-16T01:28:33.594Z,4.44
2018-01-16T01:29:36.555Z,4.45
2018-01-16T01:30:39.473Z,4.47
2018-01-16T01:31:42.483Z,4.49
2018-01-16T01:32:45.367Z,4.50
2018-01-16T01:33:48.299Z,4.44
2018-01-16T01:34:51.241Z,4.48
2018-01-16T01:35:54.162Z,4.44
2018-01-16T01:36:57.104Z,4.53
2018-01-16T01:38:00.010Z,4.48
2018-01-16T01:39:02.941Z,4.46
2018-01-16T01:40:06.214Z,4.42
2018-01-16T01:41:09.118Z,4.35
2018-01-16T01:42:12.116Z,4.31
2018-01-16T01:43:15.032Z,4.31
2018-01-16T01:44:17.935Z,4.32
2018-01-16T01:45:20.854Z,4.33
2018-01-16T01:46:24.594Z,4.32
2018-01-16T01:47:27.508Z,4.31
2018-01-16T01:48:30.454Z,4.34
2018-01-16T01:49:33.372Z,4.33
2018-01-16T01:50:36.293Z,4.34
2018-01-16T01:51:39.167Z,4.35
2018-01-16T01:52:42.554Z,4.38
2018-01-16T01:53:45.459Z,4.37
2018-01-16T01:54:48.474Z,4.41
2018-01-16T01:55:51.396Z,4.33
2018-01-16T01:56:54.286Z,4.33
2018-01-16T01:57:57.227Z,4.34
2018-01-16T01:59:00.643Z,4.28
2018-01-16T02:00:03.555Z,4.31
2018-01-16T02:01:06.478Z,4.30
2018-01-16T02:02:09.438Z,4.30
2018-01-16T02:03:12.363Z,4.34
2018-01-16T02:04:15.295Z,4.31
2018-01-16T02:05:18.709Z,4.34
2018-01-16T02:06:21.628Z,4.32
2018-01-16T02:07:24.585Z,4.36
2018-01-16T02:08:27.488Z,4.38
2018-01-16T02:09:30.416Z,4.41
2018-01-16T02:10:33.343Z,4.47
2018-01-16T02:11:36.696Z,4.44
2018-01-16T02:12:39.610Z,4.42
2018-01-16T02:13:42.535Z,4.42
2018-01-16T02:14:45.385Z,4.55
2018-01-16T02:15:48.235Z,4.56
2018-01-16T02:16:51.020Z,4.62
2018-01-16T02:17:54.281Z,4.66
2018-01-16T02:18:57.193Z,4.69
2018-01-16T02:20:00.088Z,4.70
2018-01-16T02:21:03.035Z,4.70
2018-01-16T02:22:05.944Z,4.70
2018-01-16T02:23:08.878Z,4.64
2018-01-16T02:24:12.287Z,4.65
2018-01-16T02:25:15.224Z,4.65
2018-01-16T02:26:18.159Z,4.70
2018-01-16T02:27:21.055Z,4.75
2018-01-16T02:28:23.966Z,4.75
2018-01-16T02:29:28.396Z,4.76
2018-01-16T02:30:32.611Z,4.74
2018-01-16T02:31:35.502Z,4.74
2018-01-16T02:32:38.402Z,4.73
2018-01-16T02:33:41.318Z,4.73
2018-01-16T02:34:44.212Z,4.75
2018-01-16T02:35:47.143Z,4.72
2018-01-16T02:36:50.305Z,4.74
2018-01-16T02:37:53.166Z,4.72
2018-01-16T02:38:56.092Z,4.70
2018-01-16T02:39:59.014Z,4.70
2018-01-16T02:41:01.927Z,4.76
2018-01-16T02:42:04.842Z,4.77
2018-01-16T02:43:08.256Z,4.84
2018-01-16T02:44:11.242Z,4.86
2018-01-16T02:45:14.363Z,4.86
2018-01-16T02:46:17.387Z,4.76
2018-01-16T02:47:20.507Z,4.75
2018-01-16T02:48:23.423Z,4.73
2018-01-16T02:49:26.776Z,4.66
2018-01-16T02:50:29.803Z,4.65
2018-01-16T02:51:32.917Z,4.66
2018-01-16T02:52:36.009Z,4.68
2018-01-16T02:53:38.891Z,4.69
2018-01-16T02:54:41.868Z,4.68
2018-01-16T02:55:45.266Z,4.65
2018-01-16T02:56:48.124Z,4.64
2018-01-16T02:57:51.061Z,4.65
2018-01-16T02:58:54.010Z,4.67
2018-01-16T02:59:57.026Z,4.75
2018-01-16T03:00:59.933Z,4.76
2018-01-16T03:02:03.235Z,4.73
2018-01-16T03:03:06.108Z,4.70
2018-01-16T03:04:09.028Z,4.68
2018-01-16T03:05:11.931Z,4.74
2018-01-16T03:06:14.847Z,4.76
2018-01-16T03:07:17.829Z,4.77
2018-01-16T03:08:21.068Z,4.78
2018-01-16T03:09:23.997Z,4.75
2018-01-16T03:10:26.907Z,4.71
2018-01-16T03:11:29.802Z,4.72
2018-01-16T03:12:32.692Z,4.73
2018-01-16T03:13:35.569Z,4.83
2018-01-16T03:14:39.126Z,4.81
2018-01-16T03:15:41.982Z,4.76
2018-01-16T03:16:44.887Z,4.72
2018-01-16T03:17:47.789Z,4.76
2018-01-16T03:18:50.730Z,4.73
2018-01-16T03:19:53.644Z,4.75
2018-01-16T03:20:56.961Z,4.73
2018-01-16T03:21:59.846Z,4.74
2018-01-16T03:23:02.767Z,4.77
2018-01-16T03:24:05.639Z,4.77
2018-01-16T03:25:08.547Z,4.72
2018-01-16T03:26:11.440Z,4.72
2018-01-16T03:27:14.585Z,4.77
2018-01-16T03:28:17.484Z,4.81
2018-01-16T03:29:20.389Z,4.84
2018-01-16T03:30:23.297Z,4.82
2018-01-16T03:31:26.227Z,4.78
2018-01-16T03:32:29.102Z,4.76
2018-01-16T03:33:32.465Z,4.75
2018-01-16T03:34:35.344Z,4.79
2018-01-16T03:35:38.249Z,4.82
2018-01-16T03:36:41.137Z,4.80
2018-01-16T03:37:44.059Z,4.76
2018-01-16T03:38:46.956Z,4.74
2018-01-16T03:39:49.824Z,4.71
2018-01-16T03:40:52.763Z,4.68
2018-01-16T03:41:55.668Z,4.73
2018-01-16T03:42:58.581Z,4.70
2018-01-16T03:44:01.474Z,4.69
2018-01-16T03:45:04.693Z,4.68
2018-01-16T03:46:07.805Z,4.68
2018-01-16T03:47:10.729Z,4.69
2018-01-16T03:48:13.626Z,4.67
2018-01-16T03:49:16.559Z,4.64
2018-01-16T03:50:19.446Z,4.62
2018-01-16T03:51:22.785Z,4.61
2018-01-16T03:52:25.663Z,4.68
2018-01-16T03:53:28.546Z,4.65
2018-01-16T03:54:31.408Z,4.60
2018-01-16T03:55:34.313Z,4.64
2018-01-16T03:56:37.209Z,4.63
2018-01-16T03:57:40.377Z,4.61
2018-01-16T03:58:43.260Z,4.62
2018-01-16T03:59:46.200Z,4.62
2018-01-16T04:00:49.068Z,4.59
2018-01-16T04:01:51.948Z,4.61
2018-01-16T04:02:54.932Z,4.60
2018-01-16T04:03:58.288Z,4.63
2018-01-16T04:05:01.207Z,4.61
2018-01-16T04:06:04.051Z,4.59
2018-01-16T04:07:07.089Z,4.59
2018-01-16T04:08:09.969Z,4.69
2018-01-16T04:09:12.761Z,4.71
2018-01-16T04:10:15.701Z,4.71
2018-01-16T04:11:18.661Z,4.74
2018-01-16T04:12:21.565Z,4.76
2018-01-16T04:13:24.466Z,4.78
2018-01-16T04:14:27.473Z,4.75
2018-01-16T04:15:30.621Z,4.84
2018-01-16T04:16:33.854Z,4.83
2018-01-16T04:17:36.657Z,4.85
2018-01-16T04:18:39.486Z,4.78
2018-01-16T04:19:42.373Z,4.77
2018-01-16T04:20:45.329Z,4.81
2018-01-16T04:21:48.213Z,4.84
2018-01-16T04:22:51.426Z,4.86
2018-01-16T04:23:54.320Z,4.80
2018-01-16T04:24:57.196Z,4.74
2018-01-16T04:26:00.105Z,4.76
2018-01-16T04:27:03.062Z,4.80
2018-01-16T04:28:05.974Z,4.83
2018-01-16T04:29:09.232Z,4.75
2018-01-16T04:30:12.131Z,4.74
2018-01-16T04:31:15.040Z,4.65
2018-01-16T04:32:17.950Z,4.57
2018-01-16T04:33:20.821Z,4.51
2018-01-16T04:34:23.737Z,4.51
2018-01-16T04:35:27.147Z,4.56
2018-01-16T04:36:30.042Z,4.57
2018-01-16T04:37:32.946Z,4.56
2018-01-16T04:38:35.815Z,4.61
2018-01-16T04:39:38.734Z,4.59
2018-01-16T04:40:41.622Z,4.63
2018-01-16T04:41:44.982Z,4.64
2018-01-16T04:42:47.876Z,4.62
2018-01-16T04:43:50.769Z,4.55
2018-01-16T04:44:53.701Z,4.48
2018-01-16T04:45:56.956Z,4.49
2018-01-16T04:46:59.997Z,4.49
2018-01-16T04:48:03.217Z,4.53
2018-01-16T04:49:06.125Z,4.49
2018-01-16T04:50:09.015Z,4.45
2018-01-16T04:51:11.911Z,4.54
2018-01-16T04:52:14.972Z,4.50
2018-01-16T04:53:17.882Z,4.48
2018-01-16T04:54:21.086Z,4.46
2018-01-16T04:55:24.011Z,4.41
2018-01-16T04:56:26.901Z,4.36
2018-01-16T04:57:29.825Z,4.35
2018-01-16T04:58:32.714Z,4.30
2018-01-16T04:59:35.690Z,4.29
2018-01-16T05:00:38.954Z,4.24
2018-01-16T05:01:41.849Z,4.20
2018-01-16T05:02:44.819Z,4.18
2018-01-16T05:03:48.311Z,4.11
2018-01-16T05:04:51.288Z,4.08
2018-01-16T05:05:54.128Z,4.00
2018-01-16T05:06:59.324Z,3.99
2018-01-16T05:08:02.233Z,3.97
2018-01-16T05:09:05.201Z,3.93
2018-01-16T05:10:08.314Z,3.89
2018-01-16T05:11:11.151Z,3.83
2018-01-16T05:12:14.042Z,3.75
2018-01-16T05:13:17.374Z,3.75
2018-01-16T05:14:20.314Z,3.67
2018-01-16T05:15:23.198Z,3.66
2018-01-16T05:16:26.087Z,3.59
2018-01-16T05:17:28.989Z,3.50
2018-01-16T05:18:31.880Z,3.56
2018-01-16T05:19:35.174Z,3.54
2018-01-16T05:20:38.064Z,3.50
2018-01-16T05:21:40.961Z,3.49
2018-01-16T05:22:43.850Z,3.48
2018-01-16T05:23:46.745Z,3.44
2018-01-16T05:24:49.701Z,3.47
2018-01-16T05:25:52.989Z,3.45
2018-01-16T05:26:55.861Z,3.43
2018-01-16T05:27:58.775Z,3.43
2018-01-16T05:29:01.634Z,3.39
2018-01-16T05:30:04.544Z,3.37
2018-01-16T05:31:07.461Z,3.38
2018-01-16T05:32:10.668Z,3.36
2018-01-16T05:33:13.567Z,3.35
2018-01-16T05:34:16.511Z,3.34
2018-01-16T05:35:19.402Z,3.34
2018-01-16T05:36:22.268Z,3.32
2018-01-16T05:37:25.178Z,3.31
2018-01-16T05:38:28.533Z,3.32
2018-01-16T05:39:31.425Z,3.31
2018-01-16T05:40:34.311Z,3.28
2018-01-16T05:41:37.246Z,3.30
2018-01-16T05:42:40.153Z,3.30
2018-01-16T05:43:43.056Z,3.29
2018-01-16T05:44:45.951Z,3.28
2018-01-16T05:45:48.968Z,3.26
2018-01-16T05:46:51.844Z,3.27
2018-01-16T05:47:54.746Z,3.31
2018-01-16T05:48:57.633Z,3.33
2018-01-16T05:50:00.613Z,3.28
2018-01-16T05:51:03.819Z,3.31
2018-01-16T05:52:06.785Z,3.31
2018-01-16T05:53:09.701Z,3.34
2018-01-16T05:54:12.601Z,3.32
2018-01-16T05:55:15.515Z,3.30
2018-01-16T05:56:18.420Z,3.28
2018-01-16T05:57:21.706Z,3.39
2018-01-16T05:58:24.590Z,3.35
2018-01-16T05:59:27.517Z,3.35
2018-01-16T06:00:30.417Z,3.35
2018-01-16T06:01:33.336Z,3.35
2018-01-16T06:02:36.273Z,3.36
2018-01-16T06:03:39.537Z,3.44
2018-01-16T06:04:42.468Z,3.49
2018-01-16T06:05:45.422Z,3.46
2018-01-16T06:06:48.388Z,3.48
2018-01-16T06:07:51.226Z,3.47
2018-01-16T06:08:54.088Z,3.45
2018-01-16T06:09:57.448Z,3.47
2018-01-16T06:11:00.284Z,3.47
2018-01-16T06:12:03.200Z,3.47
2018-01-16T06:13:06.153Z,3.45
2018-01-16T06:14:09.072Z,3.45
2018-01-16T06:15:12.039Z,3.51
2018-01-16T06:16:15.348Z,3.54
2018-01-16T06:17:18.251Z,3.59
2018-01-16T06:18:21.145Z,3.62
2018-01-16T06:19:24.078Z,3.62
2018-01-16T06:20:26.957Z,3.63
2018-01-16T06:21:29.855Z,3.64
2018-01-16T06:22:33.200Z,3.58
2018-01-16T06:23:36.077Z,3.54
2018-01-16T06:24:38.999Z,3.56
2018-01-16T06:25:41.985Z,3.54
2018-01-16T06:26:44.951Z,3.54
2018-01-16T06:27:47.874Z,3.54
2018-01-16T06:28:51.263Z,3.53
2018-01-16T06:29:54.159Z,3.56
2018-01-16T06:30:57.043Z,3.54
2018-01-16T06:31:59.982Z,3.52
2018-01-16T06:33:02.942Z,3.56
2018-01-16T06:34:05.852Z,3.56
2018-01-16T06:35:09.120Z,3.58
2018-01-16T06:36:12.098Z,3.62
2018-01-16T06:37:14.980Z,3.65
2018-01-16T06:38:17.901Z,3.63
2018-01-16T06:39:20.817Z,3.65
2018-01-16T06:40:23.899Z,3.64
2018-01-16T06:41:27.155Z,3.64
2018-01-16T06:42:30.046Z,3.64
2018-01-16T06:43:33.036Z,3.65
2018-01-16T06:44:35.934Z,3.68
2018-01-16T06:45:38.841Z,3.71
2018-01-16T06:46:43.603Z,3.75
2018-01-16T06:47:52.066Z,3.73
2018-01-16T06:48:57.101Z,3.71
2018-01-16T06:50:00.033Z,3.68
2018-01-16T06:51:02.996Z,3.71
2018-01-16T06:52:05.898Z,3.75
2018-01-16T06:53:08.909Z,3.75
2018-01-16T06:54:12.373Z,3.74
2018-01-16T06:55:15.346Z,3.77
2018-01-16T06:56:18.753Z,3.89
2018-01-16T06:57:22.459Z,3.87
2018-01-16T06:58:26.646Z,3.87
2018-01-16T06:59:29.586Z,3.91
2018-01-16T07:00:32.982Z,3.92
2018-01-16T07:01:35.954Z,3.92
2018-01-16T07:02:38.878Z,3.96
2018-01-16T07:03:41.807Z,3.96
2018-01-16T07:04:44.680Z,3.95
2018-01-16T07:05:48.286Z,3.91
2018-01-16T07:06:51.880Z,3.96
2018-01-16T07:07:54.793Z,4.01
2018-01-16T07:08:57.730Z,4.02
2018-01-16T07:10:00.633Z,4.01
2018-01-16T07:11:03.567Z,4.02
2018-01-16T07:12:06.456Z,4.02
2018-01-16T07:13:09.726Z,4.07
2018-01-16T07:14:12.681Z,4.05
2018-01-16T07:15:15.700Z,4.02
2018-01-16T07:16:18.684Z,4.12
2018-01-16T07:17:21.590Z,4.12
2018-01-16T07:18:24.528Z,4.13
2018-01-16T07:19:27.927Z,4.10
2018-01-16T07:20:30.837Z,4.13
2018-01-16T07:21:33.755Z,4.21
2018-01-16T07:22:36.657Z,4.21
2018-01-16T07:23:39.589Z,4.25
2018-01-16T07:24:42.658Z,4.21
2018-01-16T07:25:46.681Z,4.32
2018-01-16T07:26:49.733Z,4.32
2018-01-16T07:27:52.731Z,4.28
2018-01-16T07:28:55.758Z,4.27
2018-01-16T07:29:58.909Z,4.24
2018-01-16T07:31:01.766Z,4.26
2018-01-16T07:32:05.064Z,4.28
2018-01-16T07:33:08.017Z,4.27
2018-01-16T07:34:10.925Z,4.28
2018-01-16T07:35:13.858Z,4.31
2018-01-16T07:36:16.811Z,4.30
2018-01-16T07:37:19.713Z,4.26
2018-01-16T07:38:22.943Z,4.25
2018-01-16T07:39:25.858Z,4.25
2018-01-16T07:40:29.005Z,4.24
2018-01-16T07:41:32.011Z,4.25
2018-01-16T07:42:35.115Z,4.20
2018-01-16T07:43:38.102Z,4.13
2018-01-16T07:44:41.362Z,4.18
2018-01-16T07:45:44.489Z,4.26
2018-01-16T07:46:47.402Z,4.22
2018-01-16T07:47:50.314Z,4.19
2018-01-16T07:48:53.245Z,4.17
2018-01-16T07:49:56.206Z,4.19
2018-01-16T07:50:59.468Z,4.18
2018-01-16T07:52:02.408Z,4.12
2018-01-16T07:53:05.397Z,4.08
2018-01-16T07:54:08.324Z,4.05
2018-01-16T07:55:11.256Z,4.03
2018-01-16T07:56:14.165Z,4.01
2018-01-16T07:57:17.437Z,4.01
2018-01-16T07:58:20.361Z,4.02
2018-01-16T07:59:23.286Z,4.06
2018-01-16T08:00:26.246Z,4.10
2018-01-16T08:01:29.166Z,4.09
2018-01-16T08:02:32.075Z,4.10
2018-01-16T08:03:35.284Z,4.13
2018-01-16T08:04:38.190Z,4.12
2018-01-16T08:05:41.336Z,4.08
2018-01-16T08:06:44.262Z,4.09
2018-01-16T08:07:48.137Z,4.09
2018-01-16T08:08:51.064Z,4.11
2018-01-16T08:09:54.296Z,4.13
2018-01-16T08:10:57.172Z,4.11
2018-01-16T08:12:00.115Z,4.08
2018-01-16T08:13:03.039Z,4.10
2018-01-16T08:14:05.955Z,4.12
2018-01-16T08:15:08.845Z,4.12
2018-01-16T08:16:12.222Z,4.13
2018-01-16T08:17:15.113Z,4.17
2018-01-16T08:18:17.940Z,4.21
2018-01-16T08:19:27.430Z,4.26
2018-01-16T08:20:30.325Z,4.26
2018-01-16T08:21:33.309Z,4.23
2018-01-16T08:22:36.912Z,4.23
2018-01-16T08:23:39.832Z,4.27
2018-01-16T08:24:42.696Z,4.33
2018-01-16T08:25:45.580Z,4.37
2018-01-16T08:26:48.750Z,4.38
2018-01-16T08:27:51.715Z,4.41
2018-01-16T08:28:55.865Z,4.45
2018-01-16T08:29:58.744Z,4.67
2018-01-16T08:31:01.645Z,4.61
2018-01-16T08:32:04.447Z,4.57
2018-01-16T08:33:07.363Z,4.57
2018-01-16T08:34:10.321Z,4.57
2018-01-16T08:35:13.599Z,4.59
2018-01-16T08:36:16.569Z,4.63
2018-01-16T08:37:19.491Z,4.60
2018-01-16T08:38:22.411Z,4.60
2018-01-16T08:39:25.448Z,4.64
2018-01-16T08:40:28.444Z,4.64
2018-01-16T08:41:32.217Z,4.69
2018-01-16T08:42:35.109Z,4.70
2018-01-16T08:43:38.082Z,4.83
2018-01-16T08:44:40.996Z,4.77
2018-01-16T08:45:44.007Z,4.68
2018-01-16T08:46:46.897Z,4.62
2018-01-16T08:47:50.219Z,4.63
2018-01-16T08:48:53.127Z,4.66
2018-01-16T08:49:56.163Z,4.63
2018-01-16T08:50:59.087Z,4.70
2018-01-16T08:52:02.111Z,4.86
2018-01-16T08:53:05.017Z,4.86
2018-01-16T08:54:08.544Z,4.82
2018-01-16T08:55:11.471Z,4.77
2018-01-16T08:56:14.369Z,4.75
2018-01-16T08:57:17.329Z,4.79
2018-01-16T08:58:20.278Z,4.88
2018-01-16T08:59:23.169Z,4.98
2018-01-16T09:00:26.423Z,5.24
2018-01-16T09:01:29.502Z,5.45
2018-01-16T09:02:32.388Z,5.93
2018-01-16T09:03:35.292Z,5.68
2018-01-16T09:04:38.260Z,5.53
2018-01-16T09:05:41.241Z,5.50
2018-01-16T09:06:44.549Z,5.45
2018-01-16T09:07:47.698Z,5.14
2018-01-16T09:08:50.690Z,5.35
2018-01-16T09:09:53.642Z,5.28
2018-01-16T09:10:56.674Z,5.22
2018-01-16T09:11:59.926Z,5.17
2018-01-16T09:13:03.074Z,5.16
2018-01-16T09:14:05.963Z,5.18
2018-01-16T09:15:08.904Z,5.11
2018-01-16T09:16:11.859Z,5.11
2018-01-16T09:17:14.884Z,5.09
2018-01-16T09:18:18.393Z,5.11
2018-01-16T09:19:21.413Z,5.06
2018-01-16T09:20:24.323Z,4.99
2018-01-16T09:21:27.341Z,4.95
2018-01-16T09:22:30.268Z,4.92
2018-01-16T09:23:33.146Z,4.88
2018-01-16T09:24:36.455Z,4.86
2018-01-16T09:25:39.432Z,4.92
2018-01-16T09:26:42.386Z,4.91
2018-01-16T09:27:45.274Z,4.94
2018-01-16T09:28:48.226Z,4.97
2018-01-16T09:29:51.222Z,4.96
2018-01-16T09:30:54.503Z,5.00
2018-01-16T09:31:57.444Z,4.91
2018-01-16T09:33:00.338Z,4.62
2018-01-16T09:34:03.247Z,4.44
2018-01-16T09:35:06.179Z,4.37
2018-01-16T09:36:09.113Z,4.35
2018-01-16T09:37:12.441Z,4.35
2018-01-16T09:38:15.403Z,4.36
2018-01-16T09:39:18.381Z,4.39
2018-01-16T09:40:21.272Z,4.47
2018-01-16T09:41:24.335Z,4.44
2018-01-16T09:42:27.294Z,4.45
2018-01-16T09:43:30.197Z,4.56
2018-01-16T09:44:33.121Z,4.67
2018-01-16T09:45:36.074Z,4.73
2018-01-16T09:46:39.802Z,4.74
2018-01-16T09:47:42.757Z,4.84
2018-01-16T09:48:45.961Z,4.89
2018-01-16T09:49:48.933Z,5.00
2018-01-16T09:50:51.887Z,4.86
2018-01-16T09:51:54.793Z,4.89
2018-01-16T09:52:57.712Z,4.84
2018-01-16T09:54:00.695Z,4.86
2018-01-16T09:55:04.064Z,4.95
2018-01-16T09:56:07.001Z,5.04
2018-01-16T09:57:09.865Z,5.10
2018-01-16T09:58:12.809Z,5.20
2018-01-16T09:59:15.832Z,5.23
2018-01-16T10:00:18.731Z,5.17
2018-01-16T10:01:22.098Z,5.11
2018-01-16T10:02:25.002Z,5.08
2018-01-16T10:03:27.929Z,5.09
2018-01-16T10:04:30.838Z,5.07
2018-01-16T10:05:33.763Z,5.05
2018-01-16T10:06:36.833Z,5.07
2018-01-16T10:07:40.083Z,5.10
2018-01-16T10:08:43.159Z,5.09
2018-01-16T10:09:46.180Z,5.06
2018-01-16T10:10:49.217Z,5.05
2018-01-16T10:11:52.107Z,5.10
2018-01-16T10:12:55.116Z,5.13
2018-01-16T10:13:58.586Z,5.10
2018-01-16T10:15:01.517Z,5.11
2018-01-16T10:16:04.534Z,5.13
2018-01-16T10:17:07.462Z,5.12
2018-01-16T10:18:10.411Z,5.14
2018-01-16T10:19:13.313Z,5.13
2018-01-16T10:20:16.550Z,5.22
2018-01-16T10:21:19.527Z,5.23
2018-01-16T10:22:22.454Z,5.25
2018-01-16T10:23:25.393Z,5.29
2018-01-16T10:24:28.348Z,5.23
2018-01-16T10:25:31.342Z,5.27
2018-01-16T10:26:34.637Z,5.24
2018-01-16T10:27:37.569Z,5.20
2018-01-16T10:28:40.483Z,5.25
2018-01-16T10:29:43.519Z,5.32
2018-01-16T10:30:47.023Z,5.42
2018-01-16T10:31:50.176Z,5.35
2018-01-16T10:32:53.544Z,5.26
2018-01-16T10:33:56.454Z,5.22
2018-01-16T10:34:59.378Z,5.18
2018-01-16T10:36:02.324Z,5.16
2018-01-16T10:37:05.249Z,5.15
2018-01-16T10:38:08.220Z,5.14
2018-01-16T10:39:11.499Z,5.08
2018-01-16T10:40:14.604Z,4.92
2018-01-16T10:41:17.697Z,4.87
2018-01-16T10:42:20.658Z,4.79
2018-01-16T10:43:23.750Z,4.77
2018-01-16T10:44:26.796Z,4.83
2018-01-16T10:45:30.290Z,5.00
2018-01-16T10:46:33.243Z,5.00
2018-01-16T10:47:36.251Z,4.98
2018-01-16T10:48:39.268Z,5.00
2018-01-16T10:49:42.275Z,5.03
2018-01-16T10:50:45.312Z,4.98
2018-01-16T10:51:48.734Z,4.91
2018-01-16T11:09:02.296Z,4.87
2018-01-16T11:24:12.677Z,4.13
2018-01-16T11:25:16.396Z,4.13
2018-01-16T11:26:19.397Z,4.08
2018-01-16T11:27:22.308Z,4.00
2018-01-16T11:28:25.208Z,3.87
2018-01-16T11:29:28.231Z,3.79
2018-01-16T11:30:31.167Z,3.44
2018-01-16T11:31:34.181Z,3.36
2018-01-16T11:32:37.113Z,3.14
2018-01-16T11:33:40.163Z,2.95
2018-01-16T11:34:43.626Z,3.03
2018-01-16T11:35:46.559Z,2.84
2018-01-16T11:36:49.563Z,2.79
2018-01-16T11:37:52.485Z,2.87
2018-01-16T11:38:55.475Z,2.90
2018-01-16T11:39:58.465Z,2.81
2018-01-16T11:41:01.832Z,2.84
2018-01-16T11:42:04.848Z,2.76
2018-01-16T11:43:07.821Z,2.71
2018-01-16T11:44:10.943Z,2.60
2018-01-16T11:45:13.870Z,2.55
2018-01-16T11:46:16.813Z,2.47
2018-01-16T11:47:20.145Z,2.45
2018-01-16T11:48:23.254Z,2.46
2018-01-16T11:49:26.911Z,2.38
2018-01-16T11:50:29.911Z,2.17
2018-01-16T11:51:32.935Z,2.28
2018-01-16T11:52:35.856Z,2.26
2018-01-16T11:53:39.274Z,2.23
2018-01-16T11:54:42.495Z,2.21
2018-01-16T11:55:45.326Z,2.31
2018-01-16T11:56:48.187Z,2.33
2018-01-16T11:57:51.282Z,2.28
2018-01-16T11:58:54.436Z,2.38
2018-01-16T11:59:58.025Z,2.34
2018-01-16T12:01:00.945Z,2.41
2018-01-16T12:02:04.313Z,2.28
2018-01-16T12:03:07.819Z,2.30
2018-01-16T12:04:10.944Z,2.40
2018-01-16T12:05:14.024Z,2.41
2018-01-16T12:06:17.557Z,2.44
2018-01-16T12:07:20.772Z,2.57
2018-01-16T12:08:23.796Z,2.62
2018-01-16T12:09:28.102Z,2.67
2018-01-16T12:10:31.043Z,2.68
2018-01-16T12:11:34.132Z,2.76
2018-01-16T12:12:37.985Z,2.76
2018-01-16T12:13:41.033Z,2.75
2018-01-16T12:14:44.037Z,2.68
2018-01-16T12:15:47.215Z,2.78
2018-01-16T12:16:50.190Z,2.80
2018-01-16T12:17:53.432Z,2.77
2018-01-16T12:18:56.883Z,2.78
2018-01-16T12:19:59.835Z,2.79
2018-01-16T12:21:02.793Z,2.77
2018-01-16T12:22:05.820Z,2.80
2018-01-16T12:23:08.885Z,2.75
2018-01-16T12:24:11.909Z,2.72
2018-01-16T12:25:15.449Z,2.73
2018-01-16T12:26:18.492Z,2.82
2018-01-16T12:27:22.396Z,2.89
2018-01-16T12:28:25.423Z,2.87
2018-01-16T12:29:28.521Z,2.88
2018-01-16T12:30:31.453Z,2.91
2018-01-16T12:31:34.878Z,2.89
2018-01-16T12:32:37.931Z,2.71
2018-01-16T12:33:41.036Z,2.73
2018-01-16T12:34:44.169Z,2.65
2018-01-16T12:35:47.414Z,2.58
2018-01-16T12:36:50.410Z,2.55
2018-01-16T12:37:53.852Z,2.56
2018-01-16T12:38:57.109Z,2.53
2018-01-16T12:40:00.044Z,2.40
2018-01-16T12:41:03.138Z,2.50
2018-01-16T12:42:06.321Z,2.33
2018-01-16T12:43:09.568Z,2.35
2018-01-16T12:44:13.011Z,2.19
2018-01-16T12:45:16.540Z,2.10
2018-01-16T12:46:19.621Z,2.23
2018-01-16T12:47:22.846Z,2.24
2018-01-16T12:48:26.622Z,2.22
2018-01-16T12:49:30.668Z,2.21
2018-01-16T12:50:35.267Z,2.26
2018-01-16T12:51:40.376Z,2.29
2018-01-16T12:52:44.152Z,2.23
2018-01-16T12:53:48.269Z,2.27
2018-01-16T12:54:53.584Z,2.14
2018-01-16T12:55:58.149Z,2.23
2018-01-16T12:57:02.481Z,2.27
2018-01-16T12:58:05.515Z,2.29
2018-01-16T12:59:09.429Z,2.27
2018-01-16T13:00:13.143Z,2.20
2018-01-16T13:01:16.161Z,2.17
2018-01-16T13:02:19.778Z,1.98
2018-01-16T13:03:23.112Z,1.89
2018-01-16T13:04:26.425Z,1.88
2018-01-16T13:05:30.429Z,1.92
2018-01-16T13:06:33.625Z,1.95
2018-01-16T13:07:36.641Z,1.75
2018-01-16T13:08:40.060Z,1.85
2018-01-16T13:09:43.265Z,1.86
2018-01-16T13:10:48.363Z,1.76
2018-01-16T13:11:52.304Z,1.73
2018-01-16T13:12:56.571Z,1.68
2018-01-16T13:14:01.170Z,1.60
2018-01-16T13:15:05.836Z,1.60
2018-01-16T13:16:09.554Z,1.51
2018-01-16T13:17:14.423Z,1.49
2018-01-16T13:18:18.791Z,1.53
2018-01-16T13:19:21.794Z,1.42
2018-01-16T13:20:25.303Z,1.45
2018-01-16T13:21:29.352Z,1.53
2018-01-16T13:22:33.947Z,1.43
2018-01-16T13:23:38.900Z,1.31
2018-01-16T13:24:43.067Z,1.21
2018-01-16T13:25:47.848Z,1.39
2018-01-16T13:26:53.300Z,1.42
2018-01-16T13:27:57.989Z,1.43
2018-01-16T13:29:01.855Z,1.55
2018-01-16T13:30:06.536Z,1.56
2018-01-16T13:31:11.691Z,1.57
2018-01-16T13:32:16.818Z,1.68
2018-01-16T13:33:22.787Z,1.81
2018-01-16T13:34:26.741Z,1.75
2018-01-16T13:35:29.924Z,1.85
2018-01-16T13:36:34.483Z,1.84
2018-01-16T13:37:38.640Z,1.81
2018-01-16T13:38:41.946Z,1.81
2018-01-16T13:39:46.034Z,1.76
2018-01-16T13:40:49.317Z,1.65
2018-01-16T13:41:52.858Z,1.56
2018-01-16T13:42:56.639Z,1.53
2018-01-16T13:44:00.477Z,1.69
2018-01-16T13:45:04.241Z,1.70
2018-01-16T13:46:08.697Z,1.75
2018-01-16T13:47:12.708Z,1.71
2018-01-16T13:48:18.779Z,1.79
2018-01-16T13:49:22.270Z,1.60
2018-01-16T13:50:26.617Z,1.68
2018-01-16T13:51:31.361Z,1.64
2018-01-16T13:52:35.389Z,1.66
2018-01-16T13:53:39.513Z,1.69
2018-01-16T13:54:44.248Z,1.73
2018-01-16T13:55:49.730Z,1.72
2018-01-16T13:56:53.398Z,1.73
2018-01-16T13:57:59.061Z,1.74
2018-01-16T13:59:04.656Z,1.76
2018-01-16T14:00:11.008Z,1.63
2018-01-16T14:01:15.731Z,1.60
2018-01-16T14:02:20.737Z,1.70
2018-01-16T14:03:25.670Z,1.75
2018-01-16T14:04:29.905Z,1.71
2018-01-16T14:05:36.054Z,1.64
2018-01-16T14:06:40.099Z,1.69
2018-01-16T14:07:43.730Z,1.80
2018-01-16T14:08:49.350Z,1.68
2018-01-16T14:09:54.864Z,1.64
2018-01-16T14:11:04.107Z,1.66
2018-01-16T14:12:09.235Z,1.62
2018-01-16T14:13:15.633Z,1.63
2018-01-16T14:14:24.171Z,1.71
2018-01-16T14:15:30.645Z,1.59
2018-01-16T14:16:35.775Z,1.65
2018-01-16T14:17:43.332Z,1.58
2018-01-16T14:18:47.263Z,1.62
2018-01-16T14:19:53.791Z,1.47
2018-01-16T14:20:59.180Z,1.50
2018-01-16T14:22:04.070Z,1.42
2018-01-16T14:23:09.129Z,1.55
2018-01-16T14:24:15.968Z,1.43
2018-01-16T14:25:22.352Z,1.55
2018-01-16T14:26:30.127Z,1.49
2018-01-16T14:27:35.966Z,1.51
2018-01-16T14:28:40.979Z,1.54
2018-01-16T14:29:46.291Z,1.54
2018-01-16T14:30:50.981Z,1.44
2018-01-16T14:31:55.591Z,1.40